sensor_id;sensor_type;location;lat;lon;timestamp;temperature;humidity
7588;DHT22;3835;48.850;8.938;2023-08-17T00:00:13;18.60;99.90
7588;DHT22;3835;48.850;8.938;2023-08-17T00:02:40;18.60;99.90
7588;DHT22;3835;48.850;8.938;2023-08-17T00:05:07;18.60;99.90
7588;DHT22;3835;48.850;8.938;2023-08-17T00:07:36;18.50;99.90
7588;DHT22;3835;48.850;8.938;2023-08-17T00:10:03;18.50;99.90
7588;DHT22;3835;48.850;8.938;2023-08-17T00:12:30;18.50;99.90
7588;DHT22;3835;48.850;8.938;2023-08-17T00:14:56;18.40;99.90
7588;DHT22;3835;48.850;8.938;2023-08-17T00:17:25;18.40;99.90
7588;DHT22;3835;48.850;8.938;2023-08-17T00:19:51;18.40;99.90
7588;DHT22;3835;48.850;8.938;2023-08-17T00:22:18;18.40;99.90
7588;DHT22;3835;48.850;8.938;2023-08-17T00:24:45;18.40;99.90
7588;DHT22;3835;48.850;8.938;2023-08-17T00:27:11;18.40;99.90
7588;DHT22;3835;48.850;8.938;2023-08-17T00:29:38;18.40;99.90
7588;DHT22;3835;48.850;8.938;2023-08-17T00:32:05;18.40;99.90
7588;DHT22;3835;48.850;8.938;2023-08-17T00:34:34;18.40;99.90
7588;DHT22;3835;48.850;8.938;2023-08-17T00:37:00;18.30;99.90
7588;DHT22;3835;48.850;8.938;2023-08-17T00:39:27;18.30;99.90
7588;DHT22;3835;48.850;8.938;2023-08-17T00:41:57;18.20;99.90
7588;DHT22;3835;48.850;8.938;2023-08-17T00:44:24;18.20;99.90
7588;DHT22;3835;48.850;8.938;2023-08-17T00:46:50;18.10;99.90
7588;DHT22;3835;48.850;8.938;2023-08-17T00:49:17;18.20;99.90
7588;DHT22;3835;48.850;8.938;2023-08-17T00:51:45;18.20;99.90
7588;DHT22;3835;48.850;8.938;2023-08-17T00:54:12;18.10;99.90
7588;DHT22;3835;48.850;8.938;2023-08-17T00:56:40;18.10;99.90
7588;DHT22;3835;48.850;8.938;2023-08-17T00:59:06;18.10;99.90
7588;DHT22;3835;48.850;8.938;2023-08-17T01:01:33;18.10;99.90
7588;DHT22;3835;48.850;8.938;2023-08-17T01:04:00;18.10;99.90
7588;DHT22;3835;48.850;8.938;2023-08-17T01:06:27;18.00;99.90
7588;DHT22;3835;48.850;8.938;2023-08-17T01:08:55;18.00;99.90
7588;DHT22;3835;48.850;8.938;2023-08-17T01:11:27;17.90;99.90
7588;DHT22;3835;48.850;8.938;2023-08-17T01:14:01;17.90;99.90
7588;DHT22;3835;48.850;8.938;2023-08-17T01:16:33;17.90;99.90
7588;DHT22;3835;48.850;8.938;2023-08-17T01:19:01;17.90;99.90
7588;DHT22;3835;48.850;8.938;2023-08-17T01:21:37;17.90;99.90
7588;DHT22;3835;48.850;8.938;2023-08-17T01:24:06;18.00;99.90
7588;DHT22;3835;48.850;8.938;2023-08-17T01:26:33;18.10;99.90
7588;DHT22;3835;48.850;8.938;2023-08-17T01:29:00;18.10;99.90
7588;DHT22;3835;48.850;8.938;2023-08-17T01:31:30;18.10;99.90
7588;DHT22;3835;48.850;8.938;2023-08-17T01:34:03;18.20;99.90
7588;DHT22;3835;48.850;8.938;2023-08-17T01:36:35;18.20;99.90
7588;DHT22;3835;48.850;8.938;2023-08-17T01:39:06;18.30;99.90
7588;DHT22;3835;48.850;8.938;2023-08-17T01:41:34;18.20;99.90
7588;DHT22;3835;48.850;8.938;2023-08-17T01:44:01;18.30;99.90
7588;DHT22;3835;48.850;8.938;2023-08-17T01:46:31;18.30;99.90
7588;DHT22;3835;48.850;8.938;2023-08-17T01:48:58;18.30;99.90
7588;DHT22;3835;48.850;8.938;2023-08-17T01:51:34;18.30;99.90
7588;DHT22;3835;48.850;8.938;2023-08-17T01:54:27;18.30;99.90
7588;DHT22;3835;48.850;8.938;2023-08-17T01:56:54;18.30;99.90
7588;DHT22;3835;48.850;8.938;2023-08-17T01:59:21;18.40;99.90
7588;DHT22;3835;48.850;8.938;2023-08-17T02:01:48;18.40;99.90
7588;DHT22;3835;48.850;8.938;2023-08-17T02:04:15;18.40;99.90
7588;DHT22;3835;48.850;8.938;2023-08-17T02:06:42;18.50;99.90
7588;DHT22;3835;48.850;8.938;2023-08-17T02:09:09;18.40;99.90
7588;DHT22;3835;48.850;8.938;2023-08-17T02:11:37;18.50;99.90
7588;DHT22;3835;48.850;8.938;2023-08-17T02:14:04;18.40;99.90
7588;DHT22;3835;48.850;8.938;2023-08-17T02:16:31;18.50;99.90
7588;DHT22;3835;48.850;8.938;2023-08-17T02:18:57;18.50;99.90
7588;DHT22;3835;48.850;8.938;2023-08-17T02:21:24;18.50;99.90
7588;DHT22;3835;48.850;8.938;2023-08-17T02:23:51;18.50;99.90
7588;DHT22;3835;48.850;8.938;2023-08-17T02:26:17;18.50;99.90
7588;DHT22;3835;48.850;8.938;2023-08-17T02:28:45;18.50;99.90
7588;DHT22;3835;48.850;8.938;2023-08-17T02:31:11;18.50;99.90
7588;DHT22;3835;48.850;8.938;2023-08-17T02:33:38;18.50;99.90
7588;DHT22;3835;48.850;8.938;2023-08-17T02:36:06;18.40;99.90
7588;DHT22;3835;48.850;8.938;2023-08-17T02:38:32;18.40;99.90
7588;DHT22;3835;48.850;8.938;2023-08-17T02:40:59;18.50;99.90
7588;DHT22;3835;48.850;8.938;2023-08-17T02:43:26;18.50;99.90
7588;DHT22;3835;48.850;8.938;2023-08-17T02:45:54;18.60;99.90
7588;DHT22;3835;48.850;8.938;2023-08-17T02:48:21;18.60;99.90
7588;DHT22;3835;48.850;8.938;2023-08-17T02:50:47;18.60;99.90
7588;DHT22;3835;48.850;8.938;2023-08-17T02:53:14;18.70;99.90
7588;DHT22;3835;48.850;8.938;2023-08-17T02:55:41;18.70;99.90
7588;DHT22;3835;48.850;8.938;2023-08-17T02:58:08;18.70;99.90
7588;DHT22;3835;48.850;8.938;2023-08-17T03:00:34;18.70;99.90
7588;DHT22;3835;48.850;8.938;2023-08-17T03:03:03;18.70;99.90
7588;DHT22;3835;48.850;8.938;2023-08-17T03:05:30;18.70;99.90
7588;DHT22;3835;48.850;8.938;2023-08-17T03:07:56;18.70;99.90
7588;DHT22;3835;48.850;8.938;2023-08-17T03:10:23;18.60;99.90
7588;DHT22;3835;48.850;8.938;2023-08-17T03:12:50;18.60;99.90
7588;DHT22;3835;48.850;8.938;2023-08-17T03:15:17;18.60;99.90
7588;DHT22;3835;48.850;8.938;2023-08-17T03:17:44;18.60;99.90
7588;DHT22;3835;48.850;8.938;2023-08-17T03:20:12;18.70;99.90
7588;DHT22;3835;48.850;8.938;2023-08-17T03:22:39;18.70;99.90
7588;DHT22;3835;48.850;8.938;2023-08-17T03:25:06;18.80;99.90
7588;DHT22;3835;48.850;8.938;2023-08-17T03:27:33;18.80;99.90
7588;DHT22;3835;48.850;8.938;2023-08-17T03:30:00;18.80;99.90
7588;DHT22;3835;48.850;8.938;2023-08-17T03:32:27;18.80;99.90
7588;DHT22;3835;48.850;8.938;2023-08-17T03:34:54;18.80;99.90
7588;DHT22;3835;48.850;8.938;2023-08-17T03:37:22;18.80;99.90
7588;DHT22;3835;48.850;8.938;2023-08-17T03:39:48;18.80;99.90
7588;DHT22;3835;48.850;8.938;2023-08-17T03:42:15;18.80;99.90
7588;DHT22;3835;48.850;8.938;2023-08-17T03:44:42;18.80;99.90
7588;DHT22;3835;48.850;8.938;2023-08-17T03:47:08;18.80;99.90
7588;DHT22;3835;48.850;8.938;2023-08-17T03:49:35;18.80;99.90
7588;DHT22;3835;48.850;8.938;2023-08-17T03:52:02;18.80;99.90
7588;DHT22;3835;48.850;8.938;2023-08-17T03:54:30;18.80;99.90
7588;DHT22;3835;48.850;8.938;2023-08-17T03:56:57;18.80;99.90
7588;DHT22;3835;48.850;8.938;2023-08-17T03:59:24;18.80;99.90
7588;DHT22;3835;48.850;8.938;2023-08-17T04:01:51;18.80;99.90
7588;DHT22;3835;48.850;8.938;2023-08-17T04:04:17;18.80;99.90
7588;DHT22;3835;48.850;8.938;2023-08-17T04:06:44;18.80;99.90
7588;DHT22;3835;48.850;8.938;2023-08-17T04:09:11;18.80;99.90
7588;DHT22;3835;48.850;8.938;2023-08-17T04:11:39;18.70;99.90
7588;DHT22;3835;48.850;8.938;2023-08-17T04:14:06;18.70;99.90
7588;DHT22;3835;48.850;8.938;2023-08-17T04:16:34;18.70;99.90
7588;DHT22;3835;48.850;8.938;2023-08-17T04:19:01;18.70;99.90
7588;DHT22;3835;48.850;8.938;2023-08-17T04:21:28;18.80;99.90
7588;DHT22;3835;48.850;8.938;2023-08-17T04:23:54;18.80;99.90
7588;DHT22;3835;48.850;8.938;2023-08-17T04:26:21;18.80;99.90
7588;DHT22;3835;48.850;8.938;2023-08-17T04:28:50;18.80;99.90
7588;DHT22;3835;48.850;8.938;2023-08-17T04:31:17;18.80;99.90
7588;DHT22;3835;48.850;8.938;2023-08-17T04:33:44;18.80;99.90
7588;DHT22;3835;48.850;8.938;2023-08-17T04:36:10;18.80;99.90
7588;DHT22;3835;48.850;8.938;2023-08-17T04:38:37;18.80;99.90
7588;DHT22;3835;48.850;8.938;2023-08-17T04:41:04;18.80;99.90
7588;DHT22;3835;48.850;8.938;2023-08-17T04:43:31;18.80;99.90
7588;DHT22;3835;48.850;8.938;2023-08-17T04:45:59;18.80;99.90
7588;DHT22;3835;48.850;8.938;2023-08-17T04:48:25;18.80;99.90
7588;DHT22;3835;48.850;8.938;2023-08-17T04:50:52;18.80;99.90
7588;DHT22;3835;48.850;8.938;2023-08-17T04:53:19;18.90;99.90
7588;DHT22;3835;48.850;8.938;2023-08-17T04:55:46;18.80;99.90
7588;DHT22;3835;48.850;8.938;2023-08-17T04:58:12;18.90;99.90
7588;DHT22;3835;48.850;8.938;2023-08-17T05:00:39;18.80;99.90
7588;DHT22;3835;48.850;8.938;2023-08-17T05:03:08;18.90;99.90
7588;DHT22;3835;48.850;8.938;2023-08-17T05:05:35;18.90;99.90
7588;DHT22;3835;48.850;8.938;2023-08-17T05:08:03;18.90;99.90
7588;DHT22;3835;48.850;8.938;2023-08-17T05:10:30;18.90;99.90
7588;DHT22;3835;48.850;8.938;2023-08-17T05:12:56;18.90;99.90
7588;DHT22;3835;48.850;8.938;2023-08-17T05:15:23;18.90;99.90
7588;DHT22;3835;48.850;8.938;2023-08-17T05:17:50;18.90;99.90
7588;DHT22;3835;48.850;8.938;2023-08-17T05:20:18;18.90;99.90
7588;DHT22;3835;48.850;8.938;2023-08-17T05:22:46;19.00;99.90
7588;DHT22;3835;48.850;8.938;2023-08-17T05:25:12;19.00;99.90
7588;DHT22;3835;48.850;8.938;2023-08-17T05:27:39;19.00;99.90
7588;DHT22;3835;48.850;8.938;2023-08-17T05:30:07;19.10;99.90
7588;DHT22;3835;48.850;8.938;2023-08-17T05:32:34;19.10;99.90
7588;DHT22;3835;48.850;8.938;2023-08-17T05:35:01;19.20;99.90
7588;DHT22;3835;48.850;8.938;2023-08-17T05:37:29;19.30;99.90
7588;DHT22;3835;48.850;8.938;2023-08-17T05:39:56;19.30;99.90
7588;DHT22;3835;48.850;8.938;2023-08-17T05:42:22;19.20;99.90
7588;DHT22;3835;48.850;8.938;2023-08-17T05:44:49;19.10;99.90
7588;DHT22;3835;48.850;8.938;2023-08-17T05:47:16;19.20;99.90
7588;DHT22;3835;48.850;8.938;2023-08-17T05:49:44;19.10;99.90
7588;DHT22;3835;48.850;8.938;2023-08-17T05:52:11;19.10;99.90
7588;DHT22;3835;48.850;8.938;2023-08-17T05:54:39;19.00;99.90
7588;DHT22;3835;48.850;8.938;2023-08-17T05:57:07;19.10;99.90
7588;DHT22;3835;48.850;8.938;2023-08-17T05:59:33;19.10;99.90
7588;DHT22;3835;48.850;8.938;2023-08-17T06:02:00;19.10;99.90
7588;DHT22;3835;48.850;8.938;2023-08-17T06:04:27;19.10;99.90
7588;DHT22;3835;48.850;8.938;2023-08-17T06:06:54;19.10;99.90
7588;DHT22;3835;48.850;8.938;2023-08-17T06:09:21;19.10;99.90
7588;DHT22;3835;48.850;8.938;2023-08-17T06:11:49;19.20;99.90
7588;DHT22;3835;48.850;8.938;2023-08-17T06:14:16;19.20;99.90
7588;DHT22;3835;48.850;8.938;2023-08-17T06:16:43;19.40;99.90
7588;DHT22;3835;48.850;8.938;2023-08-17T06:19:10;19.50;99.90
7588;DHT22;3835;48.850;8.938;2023-08-17T06:21:36;19.60;99.90
7588;DHT22;3835;48.850;8.938;2023-08-17T06:24:04;19.60;99.90
7588;DHT22;3835;48.850;8.938;2023-08-17T06:26:31;19.60;99.90
7588;DHT22;3835;48.850;8.938;2023-08-17T06:28:59;19.60;99.90
7588;DHT22;3835;48.850;8.938;2023-08-17T06:31:25;19.60;99.90
7588;DHT22;3835;48.850;8.938;2023-08-17T06:33:53;19.60;99.90
7588;DHT22;3835;48.850;8.938;2023-08-17T06:36:20;19.60;99.90
7588;DHT22;3835;48.850;8.938;2023-08-17T06:38:46;19.60;99.90
7588;DHT22;3835;48.850;8.938;2023-08-17T06:41:13;19.70;99.90
7588;DHT22;3835;48.850;8.938;2023-08-17T06:43:40;19.70;99.90
7588;DHT22;3835;48.850;8.938;2023-08-17T06:46:08;19.90;99.90
7588;DHT22;3835;48.850;8.938;2023-08-17T06:48:35;19.90;99.90
7588;DHT22;3835;48.850;8.938;2023-08-17T06:51:02;20.00;99.90
7588;DHT22;3835;48.850;8.938;2023-08-17T06:53:30;20.20;99.90
7588;DHT22;3835;48.850;8.938;2023-08-17T06:55:57;20.20;99.90
7588;DHT22;3835;48.850;8.938;2023-08-17T06:58:23;20.40;99.90
7588;DHT22;3835;48.850;8.938;2023-08-17T07:00:50;20.50;99.90
7588;DHT22;3835;48.850;8.938;2023-08-17T07:03:19;20.50;99.90
7588;DHT22;3835;48.850;8.938;2023-08-17T07:05:45;20.60;99.90
7588;DHT22;3835;48.850;8.938;2023-08-17T07:08:13;20.70;99.90
7588;DHT22;3835;48.850;8.938;2023-08-17T07:10:40;20.70;99.90
7588;DHT22;3835;48.850;8.938;2023-08-17T07:13:07;20.80;99.90
7588;DHT22;3835;48.850;8.938;2023-08-17T07:15:33;21.00;99.90
7588;DHT22;3835;48.850;8.938;2023-08-17T07:18:00;21.00;99.90
7588;DHT22;3835;48.850;8.938;2023-08-17T07:20:28;20.90;99.90
7588;DHT22;3835;48.850;8.938;2023-08-17T07:22:55;20.90;99.90
7588;DHT22;3835;48.850;8.938;2023-08-17T07:25:22;20.90;99.90
7588;DHT22;3835;48.850;8.938;2023-08-17T07:27:49;21.00;99.90
7588;DHT22;3835;48.850;8.938;2023-08-17T07:30:16;21.20;99.90
7588;DHT22;3835;48.850;8.938;2023-08-17T07:32:43;21.20;99.90
7588;DHT22;3835;48.850;8.938;2023-08-17T07:35:09;21.20;99.90
7588;DHT22;3835;48.850;8.938;2023-08-17T07:37:37;21.20;99.90
7588;DHT22;3835;48.850;8.938;2023-08-17T07:40:05;21.40;99.90
7588;DHT22;3835;48.850;8.938;2023-08-17T07:42:33;21.50;99.90
7588;DHT22;3835;48.850;8.938;2023-08-17T07:45:00;21.40;99.90
7588;DHT22;3835;48.850;8.938;2023-08-17T07:47:28;21.00;99.90
7588;DHT22;3835;48.850;8.938;2023-08-17T07:49:54;21.00;99.90
7588;DHT22;3835;48.850;8.938;2023-08-17T07:52:23;21.10;99.90
7588;DHT22;3835;48.850;8.938;2023-08-17T07:54:51;21.40;99.90
7588;DHT22;3835;48.850;8.938;2023-08-17T07:57:18;21.50;99.90
7588;DHT22;3835;48.850;8.938;2023-08-17T07:59:44;21.50;99.90
7588;DHT22;3835;48.850;8.938;2023-08-17T08:02:11;21.60;99.90
7588;DHT22;3835;48.850;8.938;2023-08-17T08:04:38;21.70;99.90
7588;DHT22;3835;48.850;8.938;2023-08-17T08:07:05;22.00;99.90
7588;DHT22;3835;48.850;8.938;2023-08-17T08:09:32;22.10;99.90
7588;DHT22;3835;48.850;8.938;2023-08-17T08:12:00;22.00;99.90
7588;DHT22;3835;48.850;8.938;2023-08-17T08:14:27;22.20;99.90
7588;DHT22;3835;48.850;8.938;2023-08-17T08:16:54;22.40;99.90
7588;DHT22;3835;48.850;8.938;2023-08-17T08:19:21;22.30;99.90
7588;DHT22;3835;48.850;8.938;2023-08-17T08:21:48;22.60;99.90
7588;DHT22;3835;48.850;8.938;2023-08-17T08:24:14;22.80;99.90
7588;DHT22;3835;48.850;8.938;2023-08-17T08:26:41;22.70;99.90
7588;DHT22;3835;48.850;8.938;2023-08-17T08:29:09;22.40;99.90
7588;DHT22;3835;48.850;8.938;2023-08-17T08:31:36;22.30;99.90
7588;DHT22;3835;48.850;8.938;2023-08-17T08:34:03;22.50;99.90
7588;DHT22;3835;48.850;8.938;2023-08-17T08:36:30;22.60;99.90
7588;DHT22;3835;48.850;8.938;2023-08-17T08:38:57;22.70;99.90
7588;DHT22;3835;48.850;8.938;2023-08-17T08:41:25;22.90;99.90
7588;DHT22;3835;48.850;8.938;2023-08-17T08:43:53;22.90;99.90
7588;DHT22;3835;48.850;8.938;2023-08-17T08:46:23;23.10;99.90
7588;DHT22;3835;48.850;8.938;2023-08-17T08:48:52;23.20;99.90
7588;DHT22;3835;48.850;8.938;2023-08-17T08:51:26;23.20;99.90
7588;DHT22;3835;48.850;8.938;2023-08-17T08:54:00;23.30;99.90
7588;DHT22;3835;48.850;8.938;2023-08-17T08:56:30;23.40;99.90
7588;DHT22;3835;48.850;8.938;2023-08-17T08:58:59;23.50;99.90
7588;DHT22;3835;48.850;8.938;2023-08-17T09:01:30;23.60;99.90
7588;DHT22;3835;48.850;8.938;2023-08-17T09:03:59;23.60;99.90
7588;DHT22;3835;48.850;8.938;2023-08-17T09:06:26;23.70;99.90
7588;DHT22;3835;48.850;8.938;2023-08-17T09:08:53;23.80;99.90
7588;DHT22;3835;48.850;8.938;2023-08-17T09:11:20;23.90;99.90
7588;DHT22;3835;48.850;8.938;2023-08-17T09:13:48;23.90;99.90
7588;DHT22;3835;48.850;8.938;2023-08-17T09:16:14;23.80;99.90
7588;DHT22;3835;48.850;8.938;2023-08-17T09:18:43;23.70;99.90
7588;DHT22;3835;48.850;8.938;2023-08-17T09:21:20;23.60;99.90
7588;DHT22;3835;48.850;8.938;2023-08-17T09:23:51;23.60;99.90
7588;DHT22;3835;48.850;8.938;2023-08-17T09:26:19;23.70;99.90
7588;DHT22;3835;48.850;8.938;2023-08-17T09:28:47;23.60;99.90
7588;DHT22;3835;48.850;8.938;2023-08-17T09:31:14;23.70;99.90
7588;DHT22;3835;48.850;8.938;2023-08-17T09:33:42;23.80;99.90
7588;DHT22;3835;48.850;8.938;2023-08-17T09:36:10;23.90;99.90
7588;DHT22;3835;48.850;8.938;2023-08-17T09:38:37;24.10;99.90
7588;DHT22;3835;48.850;8.938;2023-08-17T09:41:05;24.30;99.90
7588;DHT22;3835;48.850;8.938;2023-08-17T09:43:32;24.60;99.90
7588;DHT22;3835;48.850;8.938;2023-08-17T09:46:00;24.90;99.90
7588;DHT22;3835;48.850;8.938;2023-08-17T09:48:32;25.10;99.90
7588;DHT22;3835;48.850;8.938;2023-08-17T09:51:02;25.20;99.90
7588;DHT22;3835;48.850;8.938;2023-08-17T09:53:35;25.30;99.90
7588;DHT22;3835;48.850;8.938;2023-08-17T09:56:04;25.30;99.90
7588;DHT22;3835;48.850;8.938;2023-08-17T09:58:33;25.40;99.90
7588;DHT22;3835;48.850;8.938;2023-08-17T10:01:04;25.70;99.90
7588;DHT22;3835;48.850;8.938;2023-08-17T10:03:34;25.90;99.90
7588;DHT22;3835;48.850;8.938;2023-08-17T10:06:06;26.10;99.90
7588;DHT22;3835;48.850;8.938;2023-08-17T10:08:39;26.10;99.90
7588;DHT22;3835;48.850;8.938;2023-08-17T10:11:10;26.00;99.90
7588;DHT22;3835;48.850;8.938;2023-08-17T10:13:45;26.10;99.90
7588;DHT22;3835;48.850;8.938;2023-08-17T10:16:22;26.00;99.90
7588;DHT22;3835;48.850;8.938;2023-08-17T10:18:54;25.80;99.90
7588;DHT22;3835;48.850;8.938;2023-08-17T10:21:29;25.50;99.90
7588;DHT22;3835;48.850;8.938;2023-08-17T10:24:00;25.70;99.90
7588;DHT22;3835;48.850;8.938;2023-08-17T10:26:29;25.70;99.90
7588;DHT22;3835;48.850;8.938;2023-08-17T10:28:58;25.70;99.90
7588;DHT22;3835;48.850;8.938;2023-08-17T10:31:29;25.70;99.90
7588;DHT22;3835;48.850;8.938;2023-08-17T10:33:59;25.70;99.90
7588;DHT22;3835;48.850;8.938;2023-08-17T10:36:30;25.70;99.90
7588;DHT22;3835;48.850;8.938;2023-08-17T10:39:20;25.70;99.90
7588;DHT22;3835;48.850;8.938;2023-08-17T10:41:49;25.70;99.90
7588;DHT22;3835;48.850;8.938;2023-08-17T10:44:18;25.70;99.90
7588;DHT22;3835;48.850;8.938;2023-08-17T10:47:21;25.80;99.90
7588;DHT22;3835;48.850;8.938;2023-08-17T10:49:50;25.80;99.90
7588;DHT22;3835;48.850;8.938;2023-08-17T10:52:29;25.90;99.90
7588;DHT22;3835;48.850;8.938;2023-08-17T10:54:59;25.90;99.90
7588;DHT22;3835;48.850;8.938;2023-08-17T10:57:32;25.90;99.90
7588;DHT22;3835;48.850;8.938;2023-08-17T11:00:22;25.80;99.90
7588;DHT22;3835;48.850;8.938;2023-08-17T11:02:54;25.80;99.90
7588;DHT22;3835;48.850;8.938;2023-08-17T11:05:36;25.80;99.90
7588;DHT22;3835;48.850;8.938;2023-08-17T11:08:07;25.90;99.90
7588;DHT22;3835;48.850;8.938;2023-08-17T11:10:35;26.00;99.90
7588;DHT22;3835;48.850;8.938;2023-08-17T11:13:04;26.10;99.90
7588;DHT22;3835;48.850;8.938;2023-08-17T11:15:37;26.20;99.90
7588;DHT22;3835;48.850;8.938;2023-08-17T11:18:09;26.30;99.90
7588;DHT22;3835;48.850;8.938;2023-08-17T11:20:39;26.40;99.90
7588;DHT22;3835;48.850;8.938;2023-08-17T11:23:09;26.40;99.90
7588;DHT22;3835;48.850;8.938;2023-08-17T11:25:37;26.60;99.90
7588;DHT22;3835;48.850;8.938;2023-08-17T11:28:07;26.60;99.90
7588;DHT22;3835;48.850;8.938;2023-08-17T11:30:36;26.70;99.90
7588;DHT22;3835;48.850;8.938;2023-08-17T11:33:06;26.90;99.90
7588;DHT22;3835;48.850;8.938;2023-08-17T11:35:35;27.10;99.90
7588;DHT22;3835;48.850;8.938;2023-08-17T11:38:08;27.20;99.90
7588;DHT22;3835;48.850;8.938;2023-08-17T11:40:37;27.40;99.90
7588;DHT22;3835;48.850;8.938;2023-08-17T11:43:05;27.30;99.90
7588;DHT22;3835;48.850;8.938;2023-08-17T11:45:32;27.00;99.90
7588;DHT22;3835;48.850;8.938;2023-08-17T11:47:59;27.00;99.90
7588;DHT22;3835;48.850;8.938;2023-08-17T11:50:26;26.90;99.90
7588;DHT22;3835;48.850;8.938;2023-08-17T11:52:53;26.90;99.90
7588;DHT22;3835;48.850;8.938;2023-08-17T11:55:22;27.00;99.90
7588;DHT22;3835;48.850;8.938;2023-08-17T11:57:48;27.10;99.90
7588;DHT22;3835;48.850;8.938;2023-08-17T12:00:19;27.30;99.90
7588;DHT22;3835;48.850;8.938;2023-08-17T12:02:50;27.20;99.90
7588;DHT22;3835;48.850;8.938;2023-08-17T12:05:23;27.20;99.90
7588;DHT22;3835;48.850;8.938;2023-08-17T12:07:53;27.20;99.90
7588;DHT22;3835;48.850;8.938;2023-08-17T12:10:24;26.90;99.90
7588;DHT22;3835;48.850;8.938;2023-08-17T12:12:52;26.90;99.90
7588;DHT22;3835;48.850;8.938;2023-08-17T12:15:20;26.80;99.90
7588;DHT22;3835;48.850;8.938;2023-08-17T12:17:50;26.90;99.90
7588;DHT22;3835;48.850;8.938;2023-08-17T12:20:20;26.70;99.90
7588;DHT22;3835;48.850;8.938;2023-08-17T12:22:47;26.60;99.90
7588;DHT22;3835;48.850;8.938;2023-08-17T12:25:15;26.30;99.90
7588;DHT22;3835;48.850;8.938;2023-08-17T12:27:43;26.10;99.90
7588;DHT22;3835;48.850;8.938;2023-08-17T12:30:28;25.70;99.90
7588;DHT22;3835;48.850;8.938;2023-08-17T12:32:57;25.70;99.90
7588;DHT22;3835;48.850;8.938;2023-08-17T12:35:24;25.60;99.90
7588;DHT22;3835;48.850;8.938;2023-08-17T12:37:51;25.10;99.90
7588;DHT22;3835;48.850;8.938;2023-08-17T12:40:20;24.90;99.90
7588;DHT22;3835;48.850;8.938;2023-08-17T12:42:50;24.40;99.90
7588;DHT22;3835;48.850;8.938;2023-08-17T12:45:22;24.10;99.90
7588;DHT22;3835;48.850;8.938;2023-08-17T12:47:50;23.90;99.90
7588;DHT22;3835;48.850;8.938;2023-08-17T12:50:18;23.60;99.90
7588;DHT22;3835;48.850;8.938;2023-08-17T12:52:46;23.20;99.90
7588;DHT22;3835;48.850;8.938;2023-08-17T12:55:14;23.10;99.90
7588;DHT22;3835;48.850;8.938;2023-08-17T12:57:42;23.00;99.90
7588;DHT22;3835;48.850;8.938;2023-08-17T13:00:13;22.80;99.90
7588;DHT22;3835;48.850;8.938;2023-08-17T13:02:42;22.50;99.90
7588;DHT22;3835;48.850;8.938;2023-08-17T13:05:13;22.10;99.90
7588;DHT22;3835;48.850;8.938;2023-08-17T13:07:40;22.00;99.90
7588;DHT22;3835;48.850;8.938;2023-08-17T13:10:10;22.00;99.90
7588;DHT22;3835;48.850;8.938;2023-08-17T13:12:36;21.90;99.90
7588;DHT22;3835;48.850;8.938;2023-08-17T13:15:04;21.80;99.90
7588;DHT22;3835;48.850;8.938;2023-08-17T13:17:32;21.90;99.90
7588;DHT22;3835;48.850;8.938;2023-08-17T13:20:00;21.90;99.90
7588;DHT22;3835;48.850;8.938;2023-08-17T13:22:30;21.90;99.90
7588;DHT22;3835;48.850;8.938;2023-08-17T13:24:59;22.00;99.90
7588;DHT22;3835;48.850;8.938;2023-08-17T13:27:28;22.10;99.90
7588;DHT22;3835;48.850;8.938;2023-08-17T13:29:56;22.20;99.90
7588;DHT22;3835;48.850;8.938;2023-08-17T13:32:24;22.30;99.90
7588;DHT22;3835;48.850;8.938;2023-08-17T13:34:55;22.50;99.90
7588;DHT22;3835;48.850;8.938;2023-08-17T13:37:23;22.50;99.90
7588;DHT22;3835;48.850;8.938;2023-08-17T13:39:51;22.30;99.90
7588;DHT22;3835;48.850;8.938;2023-08-17T13:42:19;22.30;99.90
7588;DHT22;3835;48.850;8.938;2023-08-17T13:44:47;22.50;99.90
7588;DHT22;3835;48.850;8.938;2023-08-17T13:47:15;22.60;99.90
7588;DHT22;3835;48.850;8.938;2023-08-17T13:49:43;22.90;99.90
7588;DHT22;3835;48.850;8.938;2023-08-17T13:52:15;23.10;99.90
7588;DHT22;3835;48.850;8.938;2023-08-17T13:54:44;23.10;99.90
7588;DHT22;3835;48.850;8.938;2023-08-17T13:57:14;23.20;99.90
7588;DHT22;3835;48.850;8.938;2023-08-17T13:59:42;23.40;99.90
7588;DHT22;3835;48.850;8.938;2023-08-17T14:02:11;23.60;99.90
7588;DHT22;3835;48.850;8.938;2023-08-17T14:04:39;23.60;99.90
7588;DHT22;3835;48.850;8.938;2023-08-17T14:07:06;23.60;99.90
7588;DHT22;3835;48.850;8.938;2023-08-17T14:09:36;23.50;99.90
7588;DHT22;3835;48.850;8.938;2023-08-17T14:12:05;23.60;99.90
7588;DHT22;3835;48.850;8.938;2023-08-17T14:14:33;23.60;99.90
7588;DHT22;3835;48.850;8.938;2023-08-17T14:17:00;23.50;99.90
7588;DHT22;3835;48.850;8.938;2023-08-17T14:19:29;23.50;99.90
7588;DHT22;3835;48.850;8.938;2023-08-17T14:21:58;23.50;99.90
7588;DHT22;3835;48.850;8.938;2023-08-17T14:24:28;23.70;99.90
7588;DHT22;3835;48.850;8.938;2023-08-17T14:26:58;23.60;99.90
7588;DHT22;3835;48.850;8.938;2023-08-17T14:29:27;23.80;99.90
7588;DHT22;3835;48.850;8.938;2023-08-17T14:31:55;23.90;99.90
7588;DHT22;3835;48.850;8.938;2023-08-17T14:34:24;23.90;99.90
7588;DHT22;3835;48.850;8.938;2023-08-17T14:36:53;24.20;99.90
7588;DHT22;3835;48.850;8.938;2023-08-17T14:39:22;24.40;99.90
7588;DHT22;3835;48.850;8.938;2023-08-17T14:41:50;24.50;99.90
7588;DHT22;3835;48.850;8.938;2023-08-17T14:44:20;24.60;99.90
7588;DHT22;3835;48.850;8.938;2023-08-17T14:46:49;24.80;99.90
7588;DHT22;3835;48.850;8.938;2023-08-17T14:49:16;24.80;99.90
7588;DHT22;3835;48.850;8.938;2023-08-17T14:51:44;24.80;99.90
7588;DHT22;3835;48.850;8.938;2023-08-17T14:54:14;25.10;99.90
7588;DHT22;3835;48.850;8.938;2023-08-17T14:56:43;25.50;99.90
7588;DHT22;3835;48.850;8.938;2023-08-17T14:59:12;25.60;99.90
7588;DHT22;3835;48.850;8.938;2023-08-17T15:01:42;25.70;99.90
7588;DHT22;3835;48.850;8.938;2023-08-17T15:04:11;25.70;99.90
7588;DHT22;3835;48.850;8.938;2023-08-17T15:06:40;26.00;99.90
7588;DHT22;3835;48.850;8.938;2023-08-17T15:09:08;26.10;99.90
7588;DHT22;3835;48.850;8.938;2023-08-17T15:11:38;26.30;99.90
7588;DHT22;3835;48.850;8.938;2023-08-17T15:14:06;26.40;99.90
7588;DHT22;3835;48.850;8.938;2023-08-17T15:16:34;26.90;99.90
7588;DHT22;3835;48.850;8.938;2023-08-17T15:19:05;27.10;99.90
7588;DHT22;3835;48.850;8.938;2023-08-17T15:21:33;27.30;99.90
7588;DHT22;3835;48.850;8.938;2023-08-17T15:24:01;27.20;99.90
7588;DHT22;3835;48.850;8.938;2023-08-17T15:26:29;27.00;99.90
7588;DHT22;3835;48.850;8.938;2023-08-17T15:28:57;26.80;99.90
7588;DHT22;3835;48.850;8.938;2023-08-17T15:31:25;26.90;99.90
7588;DHT22;3835;48.850;8.938;2023-08-17T15:33:53;26.60;99.90
7588;DHT22;3835;48.850;8.938;2023-08-17T15:36:24;26.60;99.90
7588;DHT22;3835;48.850;8.938;2023-08-17T15:38:52;26.70;99.90
7588;DHT22;3835;48.850;8.938;2023-08-17T15:41:20;26.60;99.90
7588;DHT22;3835;48.850;8.938;2023-08-17T15:43:49;26.40;99.90
7588;DHT22;3835;48.850;8.938;2023-08-17T15:46:16;26.60;99.90
7588;DHT22;3835;48.850;8.938;2023-08-17T15:48:44;26.60;99.90
7588;DHT22;3835;48.850;8.938;2023-08-17T15:51:11;26.60;99.90
7588;DHT22;3835;48.850;8.938;2023-08-17T15:53:40;26.80;99.90
7588;DHT22;3835;48.850;8.938;2023-08-17T15:56:09;26.70;99.90
7588;DHT22;3835;48.850;8.938;2023-08-17T15:58:39;26.50;99.90
7588;DHT22;3835;48.850;8.938;2023-08-17T16:01:06;26.50;99.90
7588;DHT22;3835;48.850;8.938;2023-08-17T16:03:33;26.50;99.90
7588;DHT22;3835;48.850;8.938;2023-08-17T16:06:00;26.70;99.90
7588;DHT22;3835;48.850;8.938;2023-08-17T16:08:27;26.90;99.90